Eastern Oregon Regional At Pendleton Airport
KPDT : now visible

Airfield :











YOU CAN JOIN US ON...

 
LOGIN :

Register | Disclaimer

   EN    FR    IT 

 









Legend :    VFR   Marginal VFR   IFR   Intensive IFR   Very Intensive IFR
Visi :
Ceiling :
>= 8 km
>= 3000ft
5 to 8 km
1000 to 3000 ft
1500m to 5 km
500 to 1000 ft
800 to 1500m
200 to 500 ft
< 800m
< 200 ft
Symbols :   Thunderstorms  Fog  Heavy snow  Heavy precipitations  Wind > 20 kt






- Airport Elevation : 1497 ft


KPDT - Eastern Oregon Regional At Pendleton

CURRENT METAR :
  • 051953Z 00000KT 10SM CLR 06/01 A3009 RMK AO2 SLP194 T00560006

EXPIRED METARs :
  • 051853Z 00000KT 7SM FEW120 03/M01 A3010 RMK AO2 SLP197 T00281006
  • 051753Z 18003KT 6SM BR CLR 02/M01 A3010 RMK AO2 SLP199 T00171006 10022 21011 53026

TAF KPDT
Valid from the 05 at 18:00 until the 06 at 18:00 UTC


051736Z 0518/0618 VRB04KT P6SM SCT120 BKN200
TEMPO 0518/0520 4SM BR
FM060200 12003KT P6SM BKN150
FM060800 09004KT 2SM BR SCT002 SCT200
FM061400 10004KT 5SM BR BKN150



MET'MAP, your aeronautical weather chart ! - Copyright ORBIFLY December 2007 - Disclaimer

ORBIFLY MET'MAP TEAM :

Programming & Development : Alexandra Zaïnal
Concept & original design : Baudouin d'Aumeries
Assistance for programming : Marc-Olivier Méhu
Technical & hardware support : Manuel Goepfert

Contact : metmap@orbifly.com




SOURCES & CREDITS :

   NOAA       Earth
Advisory